createdAt,value
2022-09-02T00:02:17.559Z,50.87
2022-09-02T00:04:45.180Z,51.04
2022-09-02T00:07:12.119Z,51.41
2022-09-02T00:09:40.560Z,51.30
2022-09-02T00:12:09.649Z,51.41
2022-09-02T00:14:39.456Z,51.72
2022-09-02T00:17:06.535Z,51.77
2022-09-02T00:19:34.262Z,51.59
2022-09-02T00:22:03.001Z,51.89
2022-09-02T00:24:30.992Z,52.62
2022-09-02T00:26:57.935Z,52.38
2022-09-02T00:29:28.974Z,52.24
2022-09-02T00:31:56.787Z,52.40
2022-09-02T00:34:24.761Z,52.82
2022-09-02T00:36:51.773Z,52.83
2022-09-02T00:39:20.144Z,53.05
2022-09-02T00:41:47.677Z,53.23
2022-09-02T00:44:18.380Z,53.29
2022-09-02T00:46:46.489Z,53.50
2022-09-02T00:49:24.271Z,53.30
2022-09-02T00:52:17.410Z,53.54
2022-09-02T00:54:51.739Z,53.72
2022-09-02T00:57:23.347Z,53.82
2022-09-02T01:00:17.371Z,54.25
2022-09-02T01:02:50.881Z,54.51
2022-09-02T01:05:20.767Z,54.50
2022-09-02T01:07:48.268Z,54.32
2022-09-02T01:10:21.856Z,55.09
2022-09-02T01:12:49.673Z,54.59
2022-09-02T01:15:16.738Z,54.57
2022-09-02T01:17:50.177Z,54.85
2022-09-02T01:20:25.581Z,55.41
2022-09-02T01:22:54.865Z,54.97
2022-09-02T01:25:28.078Z,55.21
2022-09-02T01:28:14.705Z,55.68
2022-09-02T01:30:48.476Z,55.50
2022-09-02T01:33:16.655Z,55.23
2022-09-02T01:35:45.094Z,55.96
2022-09-02T01:38:13.699Z,56.01
2022-09-02T01:40:41.117Z,56.07
2022-09-02T01:43:17.250Z,56.38
2022-09-02T01:45:50.293Z,56.24
2022-09-02T01:48:21.756Z,56.44
2022-09-02T01:50:59.500Z,56.38
2022-09-02T01:53:27.880Z,56.29
2022-09-02T01:55:55.146Z,56.43
2022-09-02T01:58:23.135Z,56.41
2022-09-02T02:00:50.923Z,56.57
2022-09-02T02:03:18.589Z,56.56
2022-09-02T02:05:45.540Z,56.81
2022-09-02T02:08:15.963Z,56.49
2022-09-02T02:10:43.969Z,56.68
2022-09-02T02:13:13.274Z,56.70
2022-09-02T02:15:44.208Z,56.89
2022-09-02T02:18:12.467Z,57.00
2022-09-02T02:20:39.412Z,57.45
2022-09-02T02:23:07.603Z,57.54
2022-09-02T02:25:35.041Z,57.41
2022-09-02T02:28:02.733Z,57.54
2022-09-02T02:30:31.509Z,57.93
2022-09-02T02:33:00.394Z,57.68
2022-09-02T02:35:27.451Z,57.71
2022-09-02T02:37:54.889Z,58.08
2022-09-02T02:40:25.537Z,58.00
2022-09-02T02:42:53.570Z,58.23
2022-09-02T02:45:24.234Z,58.42
2022-09-02T02:47:52.373Z,58.58
2022-09-02T02:50:23.303Z,58.33
2022-09-02T02:52:50.892Z,58.55
2022-09-02T02:55:19.320Z,58.63
2022-09-02T02:57:47.005Z,58.60
2022-09-02T03:00:28.114Z,59.07
2022-09-02T03:03:08.936Z,58.88
2022-09-02T03:05:38.104Z,58.85
2022-09-02T03:08:09.614Z,59.01
2022-09-02T03:10:38.629Z,59.06
2022-09-02T03:13:05.796Z,59.39
2022-09-02T03:15:33.640Z,58.77
2022-09-02T03:18:00.606Z,58.85
2022-09-02T03:20:28.117Z,59.34
2022-09-02T03:23:00.169Z,59.19
2022-09-02T03:25:35.351Z,59.37
2022-09-02T03:28:05.918Z,59.78
2022-09-02T03:30:34.237Z,59.61
2022-09-02T03:33:04.493Z,60.23
2022-09-02T03:35:34.202Z,60.15
2022-09-02T03:38:01.717Z,60.22
2022-09-02T03:40:30.200Z,59.93
2022-09-02T03:43:00.098Z,60.53
2022-09-02T03:45:29.012Z,60.00
2022-09-02T03:47:56.760Z,60.14
2022-09-02T03:50:36.483Z,60.60
2022-09-02T03:53:05.254Z,60.42
2022-09-02T03:55:33.239Z,60.59
2022-09-02T03:58:03.450Z,60.63
2022-09-02T04:00:36.284Z,60.97
2022-09-02T04:03:06.072Z,60.97
2022-09-02T04:05:33.881Z,60.87
2022-09-02T04:08:01.882Z,61.08
2022-09-02T04:10:29.304Z,61.17
2022-09-02T04:12:56.658Z,61.18
2022-09-02T04:15:23.610Z,61.40
2022-09-02T04:17:51.431Z,61.45
2022-09-02T04:20:20.776Z,61.61
2022-09-02T04:22:47.718Z,61.58
2022-09-02T04:25:15.839Z,61.77
2022-09-02T04:27:44.505Z,61.62
2022-09-02T04:30:16.379Z,62.00
2022-09-02T04:32:44.322Z,61.97
2022-09-02T04:35:11.968Z,61.81
2022-09-02T04:37:39.333Z,62.01
2022-09-02T04:40:08.622Z,62.05
2022-09-02T04:42:35.905Z,62.22
2022-09-02T04:45:03.772Z,62.29
2022-09-02T04:47:32.136Z,62.09
2022-09-02T04:49:59.360Z,62.25
2022-09-02T04:52:27.004Z,62.33
2022-09-02T04:54:53.997Z,62.56
2022-09-02T04:57:20.840Z,62.48
2022-09-02T04:59:47.973Z,62.65
2022-09-02T05:02:15.306Z,62.95
2022-09-02T05:04:42.556Z,63.07
2022-09-02T05:07:17.268Z,62.93
2022-09-02T05:09:47.218Z,62.61
2022-09-02T05:12:18.219Z,63.06
2022-09-02T05:14:51.860Z,62.75
2022-09-02T05:17:20.972Z,62.78
2022-09-02T05:19:49.568Z,62.44
2022-09-02T05:22:17.632Z,62.45
2022-09-02T05:24:45.636Z,62.21
2022-09-02T05:27:16.295Z,62.38
2022-09-02T05:29:45.586Z,62.10
2022-09-02T05:32:14.586Z,62.25
2022-09-02T05:34:43.009Z,61.92
2022-09-02T05:37:10.896Z,61.99
2022-09-02T05:39:38.730Z,61.50
2022-09-02T05:42:07.262Z,61.38
2022-09-02T05:44:36.740Z,61.21
2022-09-02T05:47:05.692Z,60.94
2022-09-02T05:49:32.998Z,60.89
2022-09-02T05:52:05.361Z,60.99
2022-09-02T05:54:40.641Z,60.67
2022-09-02T05:57:15.249Z,60.36
2022-09-02T05:59:56.042Z,60.07
2022-09-02T06:02:26.871Z,59.83
2022-09-02T06:04:54.771Z,59.90
2022-09-02T06:07:24.593Z,59.98
2022-09-02T06:09:53.268Z,59.61
2022-09-02T06:12:23.773Z,59.49
2022-09-02T06:14:51.016Z,59.58
2022-09-02T06:17:20.468Z,59.55
2022-09-02T06:19:52.656Z,59.28
2022-09-02T06:22:22.495Z,59.28
2022-09-02T06:24:49.566Z,58.58
2022-09-02T06:27:21.198Z,58.79
2022-09-02T06:29:51.710Z,58.61
2022-09-02T06:32:21.196Z,58.48
2022-09-02T06:34:50.398Z,58.30
2022-09-02T06:37:17.340Z,58.26
2022-09-02T06:39:46.210Z,58.02
2022-09-02T06:42:18.663Z,57.80
2022-09-02T06:45:03.784Z,58.15
2022-09-02T06:47:31.783Z,57.79
2022-09-02T06:50:00.117Z,57.77
2022-09-02T06:52:27.688Z,57.69
2022-09-02T06:54:55.329Z,57.46
2022-09-02T06:57:22.488Z,57.39
2022-09-02T06:59:59.312Z,57.53
2022-09-02T07:02:32.381Z,57.45
2022-09-02T07:05:15.111Z,57.22
2022-09-02T07:07:46.030Z,57.00
2022-09-02T07:10:16.340Z,56.92
2022-09-02T07:12:49.063Z,56.46
2022-09-02T07:15:17.476Z,56.49
2022-09-02T07:17:45.162Z,55.99
2022-09-02T07:20:21.952Z,56.42
2022-09-02T07:22:56.420Z,56.23
2022-09-02T07:25:25.728Z,56.08
2022-09-02T07:27:53.404Z,55.90
2022-09-02T07:30:21.362Z,55.90
2022-09-02T07:32:52.219Z,55.91
2022-09-02T07:35:23.032Z,55.68
2022-09-02T07:37:51.025Z,55.48
2022-09-02T07:40:19.290Z,55.22
2022-09-02T07:42:46.921Z,55.08
2022-09-02T07:45:14.397Z,54.94
2022-09-02T07:47:43.250Z,55.06
2022-09-02T07:50:19.822Z,54.54
2022-09-02T07:52:56.093Z,54.70
2022-09-02T07:55:24.816Z,54.82
2022-09-02T07:57:54.513Z,54.66
2022-09-02T08:00:23.444Z,54.64
2022-09-02T08:02:52.234Z,54.04
2022-09-02T08:05:27.387Z,54.20
2022-09-02T08:07:54.560Z,54.24
2022-09-02T08:10:23.421Z,54.21
2022-09-02T08:12:51.375Z,53.78
2022-09-02T08:15:20.177Z,53.39
2022-09-02T08:17:48.704Z,53.34
2022-09-02T08:20:18.161Z,52.89
2022-09-02T08:22:48.964Z,52.91
2022-09-02T08:25:26.541Z,52.91
2022-09-02T08:27:56.505Z,52.55
2022-09-02T08:30:23.368Z,52.63
2022-09-02T08:32:50.242Z,52.63
2022-09-02T08:35:17.720Z,51.45
2022-09-02T08:37:47.678Z,51.00
2022-09-02T08:40:22.834Z,50.32
2022-09-02T08:42:57.046Z,50.08
2022-09-02T08:45:38.325Z,49.83
2022-09-02T08:48:15.457Z,49.54
2022-09-02T08:50:46.055Z,49.47
2022-09-02T08:53:39.865Z,48.89
2022-09-02T08:56:11.872Z,48.52
2022-09-02T08:58:44.131Z,48.26
2022-09-02T09:01:18.522Z,48.03
2022-09-02T09:04:18.693Z,47.19
2022-09-02T09:07:14.560Z,46.56
2022-09-02T09:10:00.434Z,46.39
2022-09-02T09:12:52.819Z,46.17
2022-09-02T09:15:34.771Z,46.05
2022-09-02T09:18:08.494Z,45.86
2022-09-02T09:20:42.021Z,45.93
2022-09-02T09:23:34.478Z,45.11
2022-09-02T09:26:17.354Z,44.35
2022-09-02T09:28:51.029Z,44.41
2022-09-02T09:31:25.061Z,44.30
2022-09-02T09:34:02.118Z,43.71
2022-09-02T09:36:48.287Z,42.98
2022-09-02T09:39:28.216Z,41.99
2022-09-02T09:42:09.889Z,41.80
2022-09-02T09:44:45.449Z,42.90
2022-09-02T09:47:25.911Z,42.26
2022-09-02T09:50:09.044Z,42.15
2022-09-02T09:52:38.014Z,42.04
2022-09-02T09:55:24.688Z,41.78
2022-09-02T09:57:54.070Z,41.50
2022-09-02T10:00:33.376Z,41.07
2022-09-02T10:03:05.325Z,40.95
2022-09-02T10:05:40.485Z,41.54
2022-09-02T10:08:16.337Z,40.33
2022-09-02T10:11:08.384Z,40.05
2022-09-02T10:13:38.175Z,39.97
2022-09-02T10:16:28.412Z,40.18
2022-09-02T10:19:38.072Z,40.14
2022-09-02T10:22:48.540Z,40.57
2022-09-02T10:25:41.721Z,40.35
2022-09-02T10:28:37.981Z,40.14
2022-09-02T10:31:32.249Z,39.56
2022-09-02T10:34:40.352Z,39.23
2022-09-02T10:37:21.579Z,39.06
2022-09-02T10:40:15.100Z,38.95
2022-09-02T10:43:09.741Z,38.86
2022-09-02T10:45:51.041Z,39.13
2022-09-02T10:48:47.056Z,38.82
2022-09-02T10:51:33.459Z,37.92
2022-09-02T10:54:25.034Z,38.09
2022-09-02T10:57:18.865Z,37.13
2022-09-02T11:00:07.666Z,36.74
2022-09-02T11:02:50.280Z,36.50
2022-09-02T11:05:28.739Z,35.79
2022-09-02T11:08:13.481Z,33.96
2022-09-02T11:10:50.142Z,34.04
2022-09-02T11:13:34.094Z,34.00
2022-09-02T11:16:34.410Z,33.14
2022-09-02T11:19:11.873Z,33.36
2022-09-02T11:22:03.959Z,33.32
2022-09-02T11:24:52.673Z,32.63
2022-09-02T11:27:49.205Z,32.01
2022-09-02T11:30:24.250Z,31.62
2022-09-02T11:33:09.940Z,32.52
2022-09-02T11:35:39.340Z,31.39
2022-09-02T11:38:31.545Z,30.80
2022-09-02T11:44:53.026Z,30.92
2022-09-02T11:47:26.249Z,30.40
2022-09-02T11:50:20.194Z,29.08
2022-09-02T11:53:29.845Z,27.90
2022-09-02T11:56:08.396Z,27.77
2022-09-02T11:58:42.061Z,28.17
2022-09-02T12:01:14.874Z,28.49
2022-09-02T12:04:58.529Z,28.55
2022-09-02T12:07:13.733Z,27.66
2022-09-02T12:09:49.216Z,27.88
2022-09-02T12:12:38.335Z,28.08
2022-09-02T12:15:05.382Z,28.64
2022-09-02T12:17:49.925Z,28.41
2022-09-02T12:20:39.965Z,29.11
2022-09-02T12:23:09.521Z,29.83
2022-09-02T12:25:49.633Z,30.23
2022-09-02T12:28:32.272Z,29.29
2022-09-02T12:31:02.220Z,28.38
2022-09-02T12:33:51.553Z,28.38
2022-09-02T12:36:36.637Z,27.14
2022-09-02T12:39:30.342Z,26.27
2022-09-02T12:42:07.674Z,25.97
2022-09-02T12:45:06.416Z,26.24
2022-09-02T12:48:19.106Z,26.05
2022-09-02T12:51:04.947Z,25.67
2022-09-02T12:53:42.100Z,25.58
2022-09-02T12:56:24.100Z,25.84
2022-09-02T12:58:58.908Z,25.85
2022-09-02T13:01:52.900Z,26.61
2022-09-02T13:05:00.914Z,26.31
2022-09-02T13:07:46.854Z,25.76
2022-09-02T13:11:16.772Z,25.44
2022-09-02T13:14:02.356Z,26.36
2022-09-02T13:17:25.881Z,25.96
2022-09-02T13:20:55.854Z,26.46
2022-09-02T13:24:16.779Z,25.37
2022-09-02T13:27:44.545Z,25.21
2022-09-02T13:30:32.703Z,25.42
2022-09-02T13:33:08.521Z,25.21
2022-09-02T13:35:40.749Z,25.39
2022-09-02T13:38:16.396Z,25.27
2022-09-02T13:40:46.268Z,24.52
2022-09-02T13:43:13.281Z,24.43
2022-09-02T13:45:40.663Z,23.92
2022-09-02T13:48:22.268Z,23.80
2022-09-02T13:50:52.985Z,23.28
2022-09-02T13:56:28.233Z,22.97
2022-09-02T13:58:58.443Z,22.83
2022-09-02T14:01:35.381Z,23.50
2022-09-02T14:04:09.888Z,21.96
2022-09-02T14:06:45.445Z,22.48
2022-09-02T14:09:24.024Z,22.09
2022-09-02T14:11:53.859Z,22.46
2022-09-02T14:14:25.147Z,22.94
2022-09-02T14:16:52.854Z,22.66
2022-09-02T14:19:25.155Z,22.90
2022-09-02T14:21:57.270Z,22.92
2022-09-02T14:24:29.137Z,22.19
2022-09-02T14:26:59.018Z,22.14
2022-09-02T14:29:29.898Z,22.46
2022-09-02T14:32:13.619Z,22.83
2022-09-02T14:34:46.617Z,22.52
2022-09-02T14:37:19.266Z,23.04
2022-09-02T14:40:12.812Z,21.69
2022-09-02T14:42:57.609Z,22.01
2022-09-02T14:45:34.637Z,22.25
2022-09-02T14:48:13.237Z,22.54
2022-09-02T14:50:40.741Z,22.94
2022-09-02T14:53:11.397Z,23.11
2022-09-02T14:56:00.313Z,22.50
2022-09-02T14:58:28.984Z,22.39
2022-09-02T15:01:02.069Z,22.78
2022-09-02T15:03:31.277Z,22.91
2022-09-02T15:05:58.209Z,23.13
2022-09-02T15:08:25.528Z,23.70
2022-09-02T15:10:54.757Z,23.17
2022-09-02T15:13:26.489Z,23.06
2022-09-02T15:15:55.538Z,23.12
2022-09-02T15:18:23.553Z,22.71
2022-09-02T15:20:51.213Z,22.12
2022-09-02T15:23:18.609Z,22.00
2022-09-02T15:25:45.527Z,22.05
2022-09-02T15:28:13.675Z,21.74
2022-09-02T15:30:40.769Z,21.78
2022-09-02T15:33:16.661Z,21.94
2022-09-02T15:35:46.619Z,21.58
2022-09-02T15:38:13.489Z,21.82
2022-09-02T15:40:40.400Z,21.65
2022-09-02T15:43:07.248Z,22.01
2022-09-02T15:45:35.192Z,21.98
2022-09-02T15:48:02.329Z,21.61
2022-09-02T15:50:33.914Z,21.55
2022-09-02T15:53:01.334Z,22.18
2022-09-02T15:55:32.799Z,21.56
2022-09-02T15:58:00.374Z,21.74
2022-09-02T16:00:28.694Z,21.02
2022-09-02T16:02:57.163Z,21.36
2022-09-02T16:05:24.549Z,21.54
2022-09-02T16:07:54.742Z,21.84
2022-09-02T16:10:21.723Z,21.89
2022-09-02T16:12:48.748Z,21.63
2022-09-02T16:15:15.883Z,21.81
2022-09-02T16:17:42.733Z,22.52
2022-09-02T16:20:10.310Z,22.12
2022-09-02T16:22:37.620Z,22.54
2022-09-02T16:25:05.197Z,22.73
2022-09-02T16:27:50.555Z,22.65
2022-09-02T16:30:18.341Z,23.00
2022-09-02T16:32:45.230Z,23.04
2022-09-02T16:35:12.027Z,23.32
2022-09-02T16:37:38.985Z,23.31
2022-09-02T16:40:06.707Z,22.95
2022-09-02T16:42:37.467Z,23.44
2022-09-02T16:45:05.653Z,23.37
2022-09-02T16:47:32.598Z,23.23
2022-09-02T16:49:59.470Z,23.58
2022-09-02T16:52:26.265Z,23.37
2022-09-02T16:54:53.109Z,23.38
2022-09-02T16:57:19.936Z,23.28
2022-09-02T16:59:46.857Z,23.83
2022-09-02T17:02:13.758Z,23.95
2022-09-02T17:04:40.631Z,24.04
2022-09-02T17:07:08.003Z,24.48
2022-09-02T17:09:35.687Z,24.55
2022-09-02T17:12:02.842Z,24.81
2022-09-02T17:14:29.748Z,25.01
2022-09-02T17:16:56.687Z,25.05
2022-09-02T17:19:26.246Z,25.17
2022-09-02T17:21:57.041Z,25.38
2022-09-02T17:24:27.839Z,25.66
2022-09-02T17:26:56.337Z,25.91
2022-09-02T17:29:48.959Z,25.79
2022-09-02T17:32:16.407Z,26.08
2022-09-02T17:34:43.341Z,26.16
2022-09-02T17:37:10.308Z,26.32
2022-09-02T17:39:37.274Z,26.84
2022-09-02T17:42:06.600Z,26.92
2022-09-02T17:44:39.636Z,27.30
2022-09-02T17:47:12.684Z,27.27
2022-09-02T17:49:44.544Z,27.90
2022-09-02T17:52:16.913Z,28.17
2022-09-02T17:54:46.004Z,28.46
2022-09-02T17:57:30.988Z,28.64
2022-09-02T18:00:17.770Z,28.68
2022-09-02T18:03:21.989Z,28.93
2022-09-02T18:06:09.844Z,29.15
2022-09-02T18:08:56.410Z,29.29
2022-09-02T18:11:24.093Z,29.61
2022-09-02T18:14:11.484Z,29.92
2022-09-02T18:16:51.904Z,30.64
2022-09-02T18:19:47.144Z,31.05
2022-09-02T18:22:44.871Z,30.97
2022-09-02T18:25:23.688Z,31.11
2022-09-02T18:28:39.922Z,31.72
2022-09-02T18:31:30.670Z,32.17
2022-09-02T18:34:18.458Z,32.02
2022-09-02T18:37:08.237Z,32.37
2022-09-02T18:40:23.865Z,32.94
2022-09-02T18:43:22.212Z,32.81
2022-09-02T18:45:52.636Z,32.83
2022-09-02T18:48:34.501Z,32.52
2022-09-02T18:51:24.276Z,32.95
2022-09-02T18:54:04.986Z,33.35
2022-09-02T18:56:36.699Z,33.15
2022-09-02T18:59:17.909Z,33.79
2022-09-02T19:01:56.436Z,33.55
2022-09-02T19:04:29.429Z,33.79
2022-09-02T19:07:16.810Z,33.58
2022-09-02T19:09:44.257Z,33.87
2022-09-02T19:12:11.312Z,33.82
2022-09-02T19:14:40.566Z,34.34
2022-09-02T19:17:09.064Z,33.93
2022-09-02T19:19:35.927Z,34.29
2022-09-02T19:22:09.338Z,34.37
2022-09-02T19:24:57.152Z,34.63
2022-09-02T19:27:31.627Z,35.10
2022-09-02T19:30:10.455Z,35.04
2022-09-02T19:32:40.933Z,34.93
2022-09-02T19:35:16.662Z,35.40
2022-09-02T19:37:51.293Z,35.37
2022-09-02T19:40:26.568Z,35.56
2022-09-02T19:42:53.907Z,35.73
2022-09-02T19:45:22.477Z,35.76
2022-09-02T19:48:06.439Z,36.20
2022-09-02T19:50:43.802Z,36.24
2022-09-02T19:53:18.622Z,36.18
2022-09-02T19:55:45.640Z,36.48
2022-09-02T19:58:12.458Z,36.67
2022-09-02T20:00:42.474Z,36.62
2022-09-02T20:03:11.432Z,36.80
2022-09-02T20:05:40.482Z,36.94
2022-09-02T20:08:10.762Z,36.92
2022-09-02T20:10:39.635Z,37.17
2022-09-02T20:13:09.330Z,37.13
2022-09-02T20:15:38.126Z,37.16
2022-09-02T20:18:15.560Z,37.64
2022-09-02T20:20:52.392Z,37.48
2022-09-02T20:23:21.203Z,37.39
2022-09-02T20:26:20.244Z,38.03
2022-09-02T20:28:57.617Z,37.78
2022-09-02T20:31:52.606Z,38.00
2022-09-02T20:34:30.391Z,37.86
2022-09-02T20:37:32.270Z,38.58
2022-09-02T20:40:34.698Z,38.52
2022-09-02T20:43:20.819Z,38.52
2022-09-02T20:46:07.275Z,39.05
2022-09-02T20:49:22.653Z,39.53
2022-09-02T20:52:08.301Z,39.41
2022-09-02T20:55:01.973Z,39.86
2022-09-02T20:58:16.042Z,40.37
2022-09-02T21:01:01.832Z,40.37
2022-09-02T21:03:46.394Z,40.17
2022-09-02T21:06:14.215Z,40.54
2022-09-02T21:08:57.011Z,40.66
2022-09-02T21:11:29.341Z,40.97
2022-09-02T21:14:17.911Z,41.05
2022-09-02T21:16:59.639Z,41.42
2022-09-02T21:20:07.951Z,41.42
2022-09-02T21:22:43.899Z,41.26
2022-09-02T21:25:36.667Z,42.10
2022-09-02T21:28:10.105Z,42.31
2022-09-02T21:30:44.571Z,42.25
2022-09-02T21:33:16.726Z,41.95
2022-09-02T21:35:54.259Z,42.01
2022-09-02T21:38:46.054Z,42.17
2022-09-02T21:41:12.851Z,42.38
2022-09-02T21:44:17.064Z,43.22
2022-09-02T21:47:19.435Z,42.76
2022-09-02T21:50:23.230Z,43.50
2022-09-02T21:53:23.147Z,43.32
2022-09-02T21:57:01.976Z,43.32
2022-09-02T21:59:51.797Z,43.79
2022-09-02T22:02:46.209Z,43.53
2022-09-02T22:05:52.612Z,43.98
2022-09-02T22:08:44.696Z,44.36
2022-09-02T22:11:37.261Z,44.04
2022-09-02T22:14:20.727Z,44.30
2022-09-02T22:17:14.483Z,44.96
2022-09-02T22:19:42.600Z,44.52
2022-09-02T22:22:24.565Z,44.95
2022-09-02T22:24:52.069Z,44.73
2022-09-02T22:27:29.595Z,44.62
2022-09-02T22:30:08.114Z,45.26
2022-09-02T22:32:41.921Z,45.46
2022-09-02T22:35:34.236Z,45.00
2022-09-02T22:38:10.691Z,45.45
2022-09-02T22:40:48.810Z,45.88
2022-09-02T22:43:22.700Z,46.33
2022-09-02T22:46:25.566Z,45.57
2022-09-02T22:49:32.324Z,45.75
2022-09-02T22:52:52.083Z,45.84
2022-09-02T22:55:42.614Z,45.99
2022-09-02T22:59:10.951Z,45.72
2022-09-02T23:01:53.730Z,46.02
2022-09-02T23:04:58.517Z,46.31
2022-09-02T23:07:25.336Z,46.95
2022-09-02T23:10:00.989Z,46.91
2022-09-02T23:12:41.316Z,46.47
2022-09-02T23:15:36.802Z,47.11
2022-09-02T23:18:44.233Z,47.48
2022-09-02T23:21:40.377Z,47.20
2022-09-02T23:24:32.938Z,47.35
2022-09-02T23:27:17.814Z,47.73
2022-09-02T23:29:44.778Z,47.71
2022-09-02T23:32:30.364Z,47.47
2022-09-02T23:35:27.680Z,47.40
2022-09-02T23:38:22.822Z,48.07
2022-09-02T23:41:02.164Z,48.62
2022-09-02T23:43:29.938Z,48.64
2022-09-02T23:46:04.380Z,48.57
2022-09-02T23:48:51.047Z,48.62
2022-09-02T23:51:32.206Z,48.95
2022-09-02T23:54:28.366Z,48.84
2022-09-02T23:57:21.768Z,48.76
